<?xml version="1.0" encoding="UTF-8" standalone="no" ?>
<gpx xmlns="http://www.topografix.com/GPX/1/1" xmlns:xsi="http://www.w3.org/2001/XMLSchema-instance" xsi:schemaLocation="http://www.topografix.com/GPX/1/1 http://www.topografix.com/GPX/1/1/gpx.xsd" version="1.1" creator="VisuGPX - https://www.visugpx.com">
  <metadata>
    <name>Gémenos:col de l'espigoulier</name>
    <desc><![CDATA[Col de l'espigoulier, vers la plaine des vaches, puis la dent de la Roque Forcade]]></desc>
  </metadata>
  <trk>
    <name><![CDATA[OR-6159252--Gémenos:col de l'espigoulier]]></name>
    <trkseg>
      <trkpt lat="43.31549" lon="5.6618">
        <ele>720</ele>
        <time>2016-05-31T09:08:31Z</time>
      </trkpt>
      <trkpt lat="43.31555" lon="5.66183">
        <ele>720</ele>
        <time>2016-05-31T09:10:31Z</time>
      </trkpt>
      <trkpt lat="43.3159" lon="5.66196">
        <ele>724</ele>
        <time>2016-05-31T09:12:31Z</time>
      </trkpt>
      <trkpt lat="43.31599" lon="5.66195">
        <ele>727</ele>
        <time>2016-05-31T09:14:31Z</time>
      </trkpt>
      <trkpt lat="43.31615" lon="5.66211">
        <ele>730</ele>
        <time>2016-05-31T09:16:31Z</time>
      </trkpt>
      <trkpt lat="43.31624" lon="5.6621">
        <ele>733</ele>
        <time>2016-05-31T09:18:31Z</time>
      </trkpt>
      <trkpt lat="43.31628" lon="5.66208">
        <ele>735</ele>
        <time>2016-05-31T09:20:31Z</time>
      </trkpt>
      <trkpt lat="43.31646" lon="5.66241">
        <ele>738</ele>
        <time>2016-05-31T09:22:31Z</time>
      </trkpt>
      <trkpt lat="43.31655" lon="5.66264">
        <ele>740</ele>
        <time>2016-05-31T09:24:31Z</time>
      </trkpt>
      <trkpt lat="43.31661" lon="5.66299">
        <ele>740</ele>
        <time>2016-05-31T09:26:31Z</time>
      </trkpt>
      <trkpt lat="43.31679" lon="5.66373">
        <ele>744</ele>
        <time>2016-05-31T09:28:31Z</time>
      </trkpt>
      <trkpt lat="43.31687" lon="5.66467">
        <ele>755</ele>
        <time>2016-05-31T09:30:31Z</time>
      </trkpt>
      <trkpt lat="43.31668" lon="5.66515">
        <ele>754</ele>
        <time>2016-05-31T09:32:31Z</time>
      </trkpt>
      <trkpt lat="43.31634" lon="5.66582">
        <ele>755</ele>
        <time>2016-05-31T09:34:31Z</time>
      </trkpt>
      <trkpt lat="43.31629" lon="5.66626">
        <ele>754</ele>
        <time>2016-05-31T09:36:31Z</time>
      </trkpt>
      <trkpt lat="43.31624" lon="5.66677">
        <ele>751</ele>
        <time>2016-05-31T09:38:31Z</time>
      </trkpt>
      <trkpt lat="43.3163" lon="5.66728">
        <ele>748</ele>
        <time>2016-05-31T09:40:31Z</time>
      </trkpt>
      <trkpt lat="43.3165" lon="5.66782">
        <ele>753</ele>
        <time>2016-05-31T09:42:31Z</time>
      </trkpt>
      <trkpt lat="43.31666" lon="5.66867">
        <ele>757</ele>
        <time>2016-05-31T09:44:31Z</time>
      </trkpt>
      <trkpt lat="43.3166" lon="5.66902">
        <ele>755</ele>
        <time>2016-05-31T09:46:31Z</time>
      </trkpt>
      <trkpt lat="43.31647" lon="5.6694">
        <ele>751</ele>
        <time>2016-05-31T09:48:31Z</time>
      </trkpt>
      <trkpt lat="43.31646" lon="5.66973">
        <ele>753</ele>
        <time>2016-05-31T09:50:31Z</time>
      </trkpt>
      <trkpt lat="43.31648" lon="5.67011">
        <ele>757</ele>
        <time>2016-05-31T09:52:31Z</time>
      </trkpt>
      <trkpt lat="43.31654" lon="5.6706">
        <ele>763</ele>
        <time>2016-05-31T09:54:31Z</time>
      </trkpt>
      <trkpt lat="43.31652" lon="5.6709">
        <ele>765</ele>
        <time>2016-05-31T09:56:31Z</time>
      </trkpt>
      <trkpt lat="43.3163" lon="5.67126">
        <ele>760</ele>
        <time>2016-05-31T09:58:31Z</time>
      </trkpt>
      <trkpt lat="43.31622" lon="5.67156">
        <ele>761</ele>
        <time>2016-05-31T10:00:31Z</time>
      </trkpt>
      <trkpt lat="43.31636" lon="5.67219">
        <ele>767</ele>
        <time>2016-05-31T10:02:31Z</time>
      </trkpt>
      <trkpt lat="43.31665" lon="5.67271">
        <ele>773</ele>
        <time>2016-05-31T10:04:31Z</time>
      </trkpt>
      <trkpt lat="43.31685" lon="5.67321">
        <ele>779</ele>
        <time>2016-05-31T10:06:31Z</time>
      </trkpt>
      <trkpt lat="43.31668" lon="5.67353">
        <ele>771</ele>
        <time>2016-05-31T10:08:31Z</time>
      </trkpt>
      <trkpt lat="43.31663" lon="5.6741">
        <ele>771</ele>
        <time>2016-05-31T10:10:31Z</time>
      </trkpt>
      <trkpt lat="43.31682" lon="5.67472">
        <ele>774</ele>
        <time>2016-05-31T10:12:31Z</time>
      </trkpt>
      <trkpt lat="43.31708" lon="5.67517">
        <ele>781</ele>
        <time>2016-05-31T10:14:31Z</time>
      </trkpt>
      <trkpt lat="43.31725" lon="5.6754">
        <ele>786</ele>
        <time>2016-05-31T10:16:31Z</time>
      </trkpt>
      <trkpt lat="43.31741" lon="5.67563">
        <ele>790</ele>
        <time>2016-05-31T10:18:31Z</time>
      </trkpt>
      <trkpt lat="43.3173" lon="5.67621">
        <ele>782</ele>
        <time>2016-05-31T10:20:31Z</time>
      </trkpt>
      <trkpt lat="43.31738" lon="5.67675">
        <ele>784</ele>
        <time>2016-05-31T10:22:31Z</time>
      </trkpt>
      <trkpt lat="43.31743" lon="5.67746">
        <ele>786</ele>
        <time>2016-05-31T10:24:31Z</time>
      </trkpt>
      <trkpt lat="43.31769" lon="5.67824">
        <ele>794</ele>
        <time>2016-05-31T10:26:31Z</time>
      </trkpt>
      <trkpt lat="43.31804" lon="5.67893">
        <ele>803</ele>
        <time>2016-05-31T10:28:31Z</time>
      </trkpt>
      <trkpt lat="43.31823" lon="5.67926">
        <ele>810</ele>
        <time>2016-05-31T10:30:31Z</time>
      </trkpt>
      <trkpt lat="43.31837" lon="5.67987">
        <ele>811</ele>
        <time>2016-05-31T10:32:31Z</time>
      </trkpt>
      <trkpt lat="43.31852" lon="5.68056">
        <ele>817</ele>
        <time>2016-05-31T10:34:31Z</time>
      </trkpt>
      <trkpt lat="43.31843" lon="5.68116">
        <ele>815</ele>
        <time>2016-05-31T10:36:31Z</time>
      </trkpt>
      <trkpt lat="43.31835" lon="5.68174">
        <ele>816</ele>
        <time>2016-05-31T10:38:31Z</time>
      </trkpt>
      <trkpt lat="43.31825" lon="5.68249">
        <ele>824</ele>
        <time>2016-05-31T10:40:31Z</time>
      </trkpt>
      <trkpt lat="43.31805" lon="5.6831">
        <ele>832</ele>
        <time>2016-05-31T10:42:31Z</time>
      </trkpt>
      <trkpt lat="43.31797" lon="5.68335">
        <ele>836</ele>
        <time>2016-05-31T10:44:31Z</time>
      </trkpt>
      <trkpt lat="43.31775" lon="5.68368">
        <ele>841</ele>
        <time>2016-05-31T10:46:31Z</time>
      </trkpt>
      <trkpt lat="43.31766" lon="5.68385">
        <ele>845</ele>
        <time>2016-05-31T10:48:31Z</time>
      </trkpt>
      <trkpt lat="43.31752" lon="5.68383">
        <ele>843</ele>
        <time>2016-05-31T10:50:31Z</time>
      </trkpt>
      <trkpt lat="43.31739" lon="5.68377">
        <ele>842</ele>
        <time>2016-05-31T10:52:31Z</time>
      </trkpt>
      <trkpt lat="43.31722" lon="5.68382">
        <ele>845</ele>
        <time>2016-05-31T10:54:31Z</time>
      </trkpt>
      <trkpt lat="43.31703" lon="5.68377">
        <ele>844</ele>
        <time>2016-05-31T10:56:31Z</time>
      </trkpt>
      <trkpt lat="43.3169" lon="5.68386">
        <ele>848</ele>
        <time>2016-05-31T10:58:31Z</time>
      </trkpt>
      <trkpt lat="43.31673" lon="5.68382">
        <ele>848</ele>
        <time>2016-05-31T11:00:31Z</time>
      </trkpt>
      <trkpt lat="43.31656" lon="5.6839">
        <ele>849</ele>
        <time>2016-05-31T11:02:31Z</time>
      </trkpt>
      <trkpt lat="43.31646" lon="5.68409">
        <ele>851</ele>
        <time>2016-05-31T11:04:31Z</time>
      </trkpt>
      <trkpt lat="43.31648" lon="5.68426">
        <ele>854</ele>
        <time>2016-05-31T11:06:31Z</time>
      </trkpt>
      <trkpt lat="43.31657" lon="5.6846">
        <ele>860</ele>
        <time>2016-05-31T11:08:31Z</time>
      </trkpt>
      <trkpt lat="43.31654" lon="5.68487">
        <ele>862</ele>
        <time>2016-05-31T11:10:31Z</time>
      </trkpt>
      <trkpt lat="43.31654" lon="5.68514">
        <ele>863</ele>
        <time>2016-05-31T11:12:31Z</time>
      </trkpt>
      <trkpt lat="43.31648" lon="5.68533">
        <ele>862</ele>
        <time>2016-05-31T11:14:31Z</time>
      </trkpt>
      <trkpt lat="43.31656" lon="5.68544">
        <ele>863</ele>
        <time>2016-05-31T11:16:31Z</time>
      </trkpt>
      <trkpt lat="43.31668" lon="5.68544">
        <ele>864</ele>
        <time>2016-05-31T11:18:31Z</time>
      </trkpt>
      <trkpt lat="43.31682" lon="5.68541">
        <ele>864</ele>
        <time>2016-05-31T11:20:31Z</time>
      </trkpt>
      <trkpt lat="43.31691" lon="5.68538">
        <ele>864</ele>
        <time>2016-05-31T11:22:31Z</time>
      </trkpt>
      <trkpt lat="43.31698" lon="5.68536">
        <ele>864</ele>
        <time>2016-05-31T11:24:31Z</time>
      </trkpt>
      <trkpt lat="43.3171" lon="5.68531">
        <ele>864</ele>
        <time>2016-05-31T11:26:31Z</time>
      </trkpt>
      <trkpt lat="43.31724" lon="5.68518">
        <ele>865</ele>
        <time>2016-05-31T11:28:31Z</time>
      </trkpt>
      <trkpt lat="43.3173" lon="5.68506">
        <ele>866</ele>
        <time>2016-05-31T11:30:31Z</time>
      </trkpt>
      <trkpt lat="43.31735" lon="5.68496">
        <ele>866</ele>
        <time>2016-05-31T11:32:31Z</time>
      </trkpt>
      <trkpt lat="43.3174" lon="5.68487">
        <ele>864</ele>
        <time>2016-05-31T11:34:31Z</time>
      </trkpt>
      <trkpt lat="43.31746" lon="5.68474">
        <ele>863</ele>
        <time>2016-05-31T11:36:31Z</time>
      </trkpt>
      <trkpt lat="43.31749" lon="5.68459">
        <ele>861</ele>
        <time>2016-05-31T11:38:31Z</time>
      </trkpt>
      <trkpt lat="43.31756" lon="5.68448">
        <ele>859</ele>
        <time>2016-05-31T11:40:31Z</time>
      </trkpt>
      <trkpt lat="43.31764" lon="5.68441">
        <ele>858</ele>
        <time>2016-05-31T11:42:31Z</time>
      </trkpt>
      <trkpt lat="43.31773" lon="5.68437">
        <ele>858</ele>
        <time>2016-05-31T11:44:31Z</time>
      </trkpt>
      <trkpt lat="43.31785" lon="5.68433">
        <ele>857</ele>
        <time>2016-05-31T11:46:31Z</time>
      </trkpt>
      <trkpt lat="43.31794" lon="5.68431">
        <ele>857</ele>
        <time>2016-05-31T11:48:31Z</time>
      </trkpt>
      <trkpt lat="43.31802" lon="5.68432">
        <ele>857</ele>
        <time>2016-05-31T11:50:31Z</time>
      </trkpt>
      <trkpt lat="43.31814" lon="5.68425">
        <ele>857</ele>
        <time>2016-05-31T11:52:31Z</time>
      </trkpt>
      <trkpt lat="43.31831" lon="5.68418">
        <ele>857</ele>
        <time>2016-05-31T11:54:31Z</time>
      </trkpt>
      <trkpt lat="43.31835" lon="5.68407">
        <ele>856</ele>
        <time>2016-05-31T11:56:31Z</time>
      </trkpt>
      <trkpt lat="43.31838" lon="5.68397">
        <ele>854</ele>
        <time>2016-05-31T11:58:31Z</time>
      </trkpt>
      <trkpt lat="43.31847" lon="5.68383">
        <ele>853</ele>
        <time>2016-05-31T12:00:31Z</time>
      </trkpt>
      <trkpt lat="43.31855" lon="5.68378">
        <ele>853</ele>
        <time>2016-05-31T12:02:31Z</time>
      </trkpt>
      <trkpt lat="43.31865" lon="5.6837">
        <ele>854</ele>
        <time>2016-05-31T12:04:31Z</time>
      </trkpt>
      <trkpt lat="43.31876" lon="5.68372">
        <ele>855</ele>
        <time>2016-05-31T12:06:31Z</time>
      </trkpt>
      <trkpt lat="43.31889" lon="5.6838">
        <ele>857</ele>
        <time>2016-05-31T12:08:31Z</time>
      </trkpt>
      <trkpt lat="43.31898" lon="5.68389">
        <ele>857</ele>
        <time>2016-05-31T12:10:31Z</time>
      </trkpt>
      <trkpt lat="43.31918" lon="5.68375">
        <ele>859</ele>
        <time>2016-05-31T12:12:31Z</time>
      </trkpt>
      <trkpt lat="43.31992" lon="5.68293">
        <ele>860</ele>
        <time>2016-05-31T12:14:31Z</time>
      </trkpt>
      <trkpt lat="43.32012" lon="5.68215">
        <ele>859</ele>
        <time>2016-05-31T12:16:31Z</time>
      </trkpt>
      <trkpt lat="43.31996" lon="5.68048">
        <ele>863</ele>
        <time>2016-05-31T12:18:31Z</time>
      </trkpt>
      <trkpt lat="43.31968" lon="5.67853">
        <ele>866</ele>
        <time>2016-05-31T12:20:31Z</time>
      </trkpt>
      <trkpt lat="43.31964" lon="5.67664">
        <ele>886</ele>
        <time>2016-05-31T12:22:31Z</time>
      </trkpt>
      <trkpt lat="43.31944" lon="5.67473">
        <ele>894</ele>
        <time>2016-05-31T12:24:31Z</time>
      </trkpt>
      <trkpt lat="43.31903" lon="5.67249">
        <ele>887</ele>
        <time>2016-05-31T12:26:31Z</time>
      </trkpt>
      <trkpt lat="43.31892" lon="5.67112">
        <ele>888</ele>
        <time>2016-05-31T12:28:31Z</time>
      </trkpt>
      <trkpt lat="43.31903" lon="5.67003">
        <ele>898</ele>
        <time>2016-05-31T12:30:31Z</time>
      </trkpt>
      <trkpt lat="43.31881" lon="5.67131">
        <ele>884</ele>
        <time>2016-05-31T12:32:31Z</time>
      </trkpt>
      <trkpt lat="43.31891" lon="5.67211">
        <ele>884</ele>
        <time>2016-05-31T12:34:31Z</time>
      </trkpt>
      <trkpt lat="43.31918" lon="5.67406">
        <ele>904</ele>
        <time>2016-05-31T12:36:31Z</time>
      </trkpt>
      <trkpt lat="43.31937" lon="5.67544">
        <ele>894</ele>
        <time>2016-05-31T12:38:31Z</time>
      </trkpt>
      <trkpt lat="43.31932" lon="5.67817">
        <ele>867</ele>
        <time>2016-05-31T12:40:31Z</time>
      </trkpt>
      <trkpt lat="43.3194" lon="5.67923">
        <ele>858</ele>
        <time>2016-05-31T12:42:31Z</time>
      </trkpt>
      <trkpt lat="43.31934" lon="5.68062">
        <ele>854</ele>
        <time>2016-05-31T12:44:31Z</time>
      </trkpt>
      <trkpt lat="43.31913" lon="5.68139">
        <ele>852</ele>
        <time>2016-05-31T12:46:31Z</time>
      </trkpt>
      <trkpt lat="43.31918" lon="5.68177">
        <ele>857</ele>
        <time>2016-05-31T12:48:31Z</time>
      </trkpt>
      <trkpt lat="43.31904" lon="5.6825">
        <ele>856</ele>
        <time>2016-05-31T12:50:31Z</time>
      </trkpt>
      <trkpt lat="43.319" lon="5.68318">
        <ele>858</ele>
        <time>2016-05-31T12:52:31Z</time>
      </trkpt>
      <trkpt lat="43.31908" lon="5.68368">
        <ele>859</ele>
        <time>2016-05-31T12:54:31Z</time>
      </trkpt>
      <trkpt lat="43.31898" lon="5.6838">
        <ele>858</ele>
        <time>2016-05-31T12:56:31Z</time>
      </trkpt>
      <trkpt lat="43.31886" lon="5.68377">
        <ele>856</ele>
        <time>2016-05-31T12:58:31Z</time>
      </trkpt>
      <trkpt lat="43.31871" lon="5.68367">
        <ele>854</ele>
        <time>2016-05-31T13:00:31Z</time>
      </trkpt>
      <trkpt lat="43.31855" lon="5.68372">
        <ele>853</ele>
        <time>2016-05-31T13:02:31Z</time>
      </trkpt>
      <trkpt lat="43.31851" lon="5.68381">
        <ele>853</ele>
        <time>2016-05-31T13:04:31Z</time>
      </trkpt>
      <trkpt lat="43.31845" lon="5.6838">
        <ele>853</ele>
        <time>2016-05-31T13:06:31Z</time>
      </trkpt>
      <trkpt lat="43.31834" lon="5.684">
        <ele>855</ele>
        <time>2016-05-31T13:08:31Z</time>
      </trkpt>
      <trkpt lat="43.31832" lon="5.68414">
        <ele>857</ele>
        <time>2016-05-31T13:10:31Z</time>
      </trkpt>
      <trkpt lat="43.31804" lon="5.68427">
        <ele>857</ele>
        <time>2016-05-31T13:12:31Z</time>
      </trkpt>
      <trkpt lat="43.31786" lon="5.68429">
        <ele>857</ele>
        <time>2016-05-31T13:14:31Z</time>
      </trkpt>
      <trkpt lat="43.31778" lon="5.68434">
        <ele>857</ele>
        <time>2016-05-31T13:16:31Z</time>
      </trkpt>
      <trkpt lat="43.31762" lon="5.68437">
        <ele>858</ele>
        <time>2016-05-31T13:18:31Z</time>
      </trkpt>
      <trkpt lat="43.31748" lon="5.68455">
        <ele>861</ele>
        <time>2016-05-31T13:20:31Z</time>
      </trkpt>
      <trkpt lat="43.31747" lon="5.68468">
        <ele>862</ele>
        <time>2016-05-31T13:22:31Z</time>
      </trkpt>
      <trkpt lat="43.31742" lon="5.68479">
        <ele>864</ele>
        <time>2016-05-31T13:24:31Z</time>
      </trkpt>
      <trkpt lat="43.31726" lon="5.6851">
        <ele>865</ele>
        <time>2016-05-31T13:26:31Z</time>
      </trkpt>
      <trkpt lat="43.31714" lon="5.68526">
        <ele>864</ele>
        <time>2016-05-31T13:28:31Z</time>
      </trkpt>
      <trkpt lat="43.31677" lon="5.6854">
        <ele>864</ele>
        <time>2016-05-31T13:30:31Z</time>
      </trkpt>
      <trkpt lat="43.31658" lon="5.68542">
        <ele>863</ele>
        <time>2016-05-31T13:32:31Z</time>
      </trkpt>
      <trkpt lat="43.31651" lon="5.68538">
        <ele>862</ele>
        <time>2016-05-31T13:34:31Z</time>
      </trkpt>
      <trkpt lat="43.31651" lon="5.68526">
        <ele>862</ele>
        <time>2016-05-31T13:36:31Z</time>
      </trkpt>
      <trkpt lat="43.31656" lon="5.68514">
        <ele>863</ele>
        <time>2016-05-31T13:38:31Z</time>
      </trkpt>
      <trkpt lat="43.31654" lon="5.68501">
        <ele>863</ele>
        <time>2016-05-31T13:40:31Z</time>
      </trkpt>
      <trkpt lat="43.31659" lon="5.6846">
        <ele>860</ele>
        <time>2016-05-31T13:42:31Z</time>
      </trkpt>
      <trkpt lat="43.31652" lon="5.68435">
        <ele>856</ele>
        <time>2016-05-31T13:44:31Z</time>
      </trkpt>
      <trkpt lat="43.31648" lon="5.6841">
        <ele>852</ele>
        <time>2016-05-31T13:46:31Z</time>
      </trkpt>
      <trkpt lat="43.31651" lon="5.68397">
        <ele>850</ele>
        <time>2016-05-31T13:48:31Z</time>
      </trkpt>
      <trkpt lat="43.31667" lon="5.68382">
        <ele>848</ele>
        <time>2016-05-31T13:50:31Z</time>
      </trkpt>
      <trkpt lat="43.31686" lon="5.68386">
        <ele>848</ele>
        <time>2016-05-31T13:52:31Z</time>
      </trkpt>
      <trkpt lat="43.31692" lon="5.68383">
        <ele>847</ele>
        <time>2016-05-31T13:54:31Z</time>
      </trkpt>
      <trkpt lat="43.31699" lon="5.68379">
        <ele>845</ele>
        <time>2016-05-31T13:56:31Z</time>
      </trkpt>
      <trkpt lat="43.31719" lon="5.68384">
        <ele>846</ele>
        <time>2016-05-31T13:58:31Z</time>
      </trkpt>
      <trkpt lat="43.31748" lon="5.68379">
        <ele>842</ele>
        <time>2016-05-31T14:00:31Z</time>
      </trkpt>
      <trkpt lat="43.31762" lon="5.68388">
        <ele>846</ele>
        <time>2016-05-31T14:02:31Z</time>
      </trkpt>
      <trkpt lat="43.31789" lon="5.68353">
        <ele>839</ele>
        <time>2016-05-31T14:04:31Z</time>
      </trkpt>
      <trkpt lat="43.31799" lon="5.6833">
        <ele>835</ele>
        <time>2016-05-31T14:06:31Z</time>
      </trkpt>
      <trkpt lat="43.31816" lon="5.6827">
        <ele>825</ele>
        <time>2016-05-31T14:08:31Z</time>
      </trkpt>
      <trkpt lat="43.31834" lon="5.68203">
        <ele>820</ele>
        <time>2016-05-31T14:10:31Z</time>
      </trkpt>
      <trkpt lat="43.31837" lon="5.68152">
        <ele>815</ele>
        <time>2016-05-31T14:12:31Z</time>
      </trkpt>
      <trkpt lat="43.31845" lon="5.68128">
        <ele>817</ele>
        <time>2016-05-31T14:14:31Z</time>
      </trkpt>
      <trkpt lat="43.31845" lon="5.68102">
        <ele>815</ele>
        <time>2016-05-31T14:16:31Z</time>
      </trkpt>
      <trkpt lat="43.31849" lon="5.68089">
        <ele>816</ele>
        <time>2016-05-31T14:18:31Z</time>
      </trkpt>
      <trkpt lat="43.31852" lon="5.68043">
        <ele>817</ele>
        <time>2016-05-31T14:20:31Z</time>
      </trkpt>
      <trkpt lat="43.31848" lon="5.68028">
        <ele>815</ele>
        <time>2016-05-31T14:22:31Z</time>
      </trkpt>
      <trkpt lat="43.31847" lon="5.68014">
        <ele>815</ele>
        <time>2016-05-31T14:24:31Z</time>
      </trkpt>
      <trkpt lat="43.31834" lon="5.6796">
        <ele>813</ele>
        <time>2016-05-31T14:26:31Z</time>
      </trkpt>
      <trkpt lat="43.3183" lon="5.67948">
        <ele>812</ele>
        <time>2016-05-31T14:28:31Z</time>
      </trkpt>
      <trkpt lat="43.31824" lon="5.67936">
        <ele>809</ele>
        <time>2016-05-31T14:30:31Z</time>
      </trkpt>
      <trkpt lat="43.31816" lon="5.67911">
        <ele>807</ele>
        <time>2016-05-31T14:32:31Z</time>
      </trkpt>
      <trkpt lat="43.31775" lon="5.67842">
        <ele>795</ele>
        <time>2016-05-31T14:34:31Z</time>
      </trkpt>
      <trkpt lat="43.31764" lon="5.67806">
        <ele>793</ele>
        <time>2016-05-31T14:36:31Z</time>
      </trkpt>
      <trkpt lat="43.31749" lon="5.67767">
        <ele>787</ele>
        <time>2016-05-31T14:38:31Z</time>
      </trkpt>
      <trkpt lat="43.31747" lon="5.67716">
        <ele>788</ele>
        <time>2016-05-31T14:40:31Z</time>
      </trkpt>
      <trkpt lat="43.31743" lon="5.67704">
        <ele>786</ele>
        <time>2016-05-31T14:42:31Z</time>
      </trkpt>
      <trkpt lat="43.31743" lon="5.67689">
        <ele>786</ele>
        <time>2016-05-31T14:44:31Z</time>
      </trkpt>
      <trkpt lat="43.31732" lon="5.67637">
        <ele>782</ele>
        <time>2016-05-31T14:46:31Z</time>
      </trkpt>
      <trkpt lat="43.31733" lon="5.67586">
        <ele>784</ele>
        <time>2016-05-31T14:48:31Z</time>
      </trkpt>
      <trkpt lat="43.31737" lon="5.67559">
        <ele>789</ele>
        <time>2016-05-31T14:50:31Z</time>
      </trkpt>
      <trkpt lat="43.3173" lon="5.67546">
        <ele>787</ele>
        <time>2016-05-31T14:52:31Z</time>
      </trkpt>
      <trkpt lat="43.31713" lon="5.67526">
        <ele>782</ele>
        <time>2016-05-31T14:54:31Z</time>
      </trkpt>
      <trkpt lat="43.31677" lon="5.67459">
        <ele>774</ele>
        <time>2016-05-31T14:56:31Z</time>
      </trkpt>
      <trkpt lat="43.31672" lon="5.67448">
        <ele>772</ele>
        <time>2016-05-31T14:58:31Z</time>
      </trkpt>
      <trkpt lat="43.31668" lon="5.67423">
        <ele>773</ele>
        <time>2016-05-31T15:00:31Z</time>
      </trkpt>
      <trkpt lat="43.31665" lon="5.67387">
        <ele>771</ele>
        <time>2016-05-31T15:02:31Z</time>
      </trkpt>
      <trkpt lat="43.3168" lon="5.67336">
        <ele>776</ele>
        <time>2016-05-31T15:04:31Z</time>
      </trkpt>
      <trkpt lat="43.31682" lon="5.67321">
        <ele>777</ele>
        <time>2016-05-31T15:06:31Z</time>
      </trkpt>
      <trkpt lat="43.31681" lon="5.67308">
        <ele>778</ele>
        <time>2016-05-31T15:08:31Z</time>
      </trkpt>
      <trkpt lat="43.31677" lon="5.67296">
        <ele>777</ele>
        <time>2016-05-31T15:10:31Z</time>
      </trkpt>
      <trkpt lat="43.31658" lon="5.67263">
        <ele>771</ele>
        <time>2016-05-31T15:12:31Z</time>
      </trkpt>
      <trkpt lat="43.31643" lon="5.67244">
        <ele>768</ele>
        <time>2016-05-31T15:14:31Z</time>
      </trkpt>
      <trkpt lat="43.31639" lon="5.67232">
        <ele>767</ele>
        <time>2016-05-31T15:16:31Z</time>
      </trkpt>
      <trkpt lat="43.31634" lon="5.67192">
        <ele>766</ele>
        <time>2016-05-31T15:18:31Z</time>
      </trkpt>
      <trkpt lat="43.31627" lon="5.67166">
        <ele>765</ele>
        <time>2016-05-31T15:20:31Z</time>
      </trkpt>
      <trkpt lat="43.31626" lon="5.6714">
        <ele>760</ele>
        <time>2016-05-31T15:22:31Z</time>
      </trkpt>
      <trkpt lat="43.31646" lon="5.67101">
        <ele>763</ele>
        <time>2016-05-31T15:24:31Z</time>
      </trkpt>
      <trkpt lat="43.31654" lon="5.67074">
        <ele>764</ele>
        <time>2016-05-31T15:26:31Z</time>
      </trkpt>
      <trkpt lat="43.31653" lon="5.67031">
        <ele>761</ele>
        <time>2016-05-31T15:28:31Z</time>
      </trkpt>
      <trkpt lat="43.31645" lon="5.66996">
        <ele>754</ele>
        <time>2016-05-31T15:30:31Z</time>
      </trkpt>
      <trkpt lat="43.31647" lon="5.66983">
        <ele>754</ele>
        <time>2016-05-31T15:32:31Z</time>
      </trkpt>
      <trkpt lat="43.31646" lon="5.66955">
        <ele>752</ele>
        <time>2016-05-31T15:34:31Z</time>
      </trkpt>
      <trkpt lat="43.31649" lon="5.66928">
        <ele>752</ele>
        <time>2016-05-31T15:36:31Z</time>
      </trkpt>
      <trkpt lat="43.31667" lon="5.66883">
        <ele>758</ele>
        <time>2016-05-31T15:38:31Z</time>
      </trkpt>
      <trkpt lat="43.31666" lon="5.66856">
        <ele>756</ele>
        <time>2016-05-31T15:40:31Z</time>
      </trkpt>
      <trkpt lat="43.31665" lon="5.66841">
        <ele>755</ele>
        <time>2016-05-31T15:42:31Z</time>
      </trkpt>
      <trkpt lat="43.3166" lon="5.66831">
        <ele>753</ele>
        <time>2016-05-31T15:44:31Z</time>
      </trkpt>
      <trkpt lat="43.31659" lon="5.66816">
        <ele>754</ele>
        <time>2016-05-31T15:46:31Z</time>
      </trkpt>
      <trkpt lat="43.31654" lon="5.66804">
        <ele>753</ele>
        <time>2016-05-31T15:48:31Z</time>
      </trkpt>
      <trkpt lat="43.3164" lon="5.66755">
        <ele>750</ele>
        <time>2016-05-31T15:50:31Z</time>
      </trkpt>
      <trkpt lat="43.31632" lon="5.66741">
        <ele>748</ele>
        <time>2016-05-31T15:52:31Z</time>
      </trkpt>
      <trkpt lat="43.31623" lon="5.66697">
        <ele>748</ele>
        <time>2016-05-31T15:54:31Z</time>
      </trkpt>
      <trkpt lat="43.31625" lon="5.66641">
        <ele>753</ele>
        <time>2016-05-31T15:56:31Z</time>
      </trkpt>
      <trkpt lat="43.31628" lon="5.66599">
        <ele>753</ele>
        <time>2016-05-31T15:58:31Z</time>
      </trkpt>
      <trkpt lat="43.31649" lon="5.66554">
        <ele>756</ele>
        <time>2016-05-31T16:00:31Z</time>
      </trkpt>
      <trkpt lat="43.31682" lon="5.66487">
        <ele>755</ele>
        <time>2016-05-31T16:02:31Z</time>
      </trkpt>
      <trkpt lat="43.31691" lon="5.66451">
        <ele>754</ele>
        <time>2016-05-31T16:04:31Z</time>
      </trkpt>
      <trkpt lat="43.3169" lon="5.66437">
        <ele>751</ele>
        <time>2016-05-31T16:06:31Z</time>
      </trkpt>
      <trkpt lat="43.31684" lon="5.66401">
        <ele>746</ele>
        <time>2016-05-31T16:08:31Z</time>
      </trkpt>
      <trkpt lat="43.31666" lon="5.66322">
        <ele>741</ele>
        <time>2016-05-31T16:10:31Z</time>
      </trkpt>
      <trkpt lat="43.3166" lon="5.66282">
        <ele>741</ele>
        <time>2016-05-31T16:12:31Z</time>
      </trkpt>
      <trkpt lat="43.31652" lon="5.66257">
        <ele>739</ele>
        <time>2016-05-31T16:14:31Z</time>
      </trkpt>
      <trkpt lat="43.31637" lon="5.66225">
        <ele>736</ele>
        <time>2016-05-31T16:16:31Z</time>
      </trkpt>
      <trkpt lat="43.31629" lon="5.66215">
        <ele>734</ele>
        <time>2016-05-31T16:18:31Z</time>
      </trkpt>
      <trkpt lat="43.31623" lon="5.6621">
        <ele>733</ele>
        <time>2016-05-31T16:20:31Z</time>
      </trkpt>
      <trkpt lat="43.31615" lon="5.6621">
        <ele>730</ele>
        <time>2016-05-31T16:22:31Z</time>
      </trkpt>
      <trkpt lat="43.31599" lon="5.66195">
        <ele>727</ele>
        <time>2016-05-31T16:24:31Z</time>
      </trkpt>
      <trkpt lat="43.3159" lon="5.66196">
        <ele>724</ele>
        <time>2016-05-31T16:26:31Z</time>
      </trkpt>
    </trkseg>
  </trk>
</gpx>